Time;durP1;ratioP1;P1;durP2;ratioP2;P2;SDS_P1;SDS_P2;PMS_P1;PMS_P2;Temp;Humidity;BMP_temperature;BMP_pressure;BME280_temperature;BME280_humidity;BME280_pressure;Samples;Min_cycle;Max_cycle;Signal;HPM_P1;HPM_P2
2023/08/03 00:00:20;;;;;;;8.35;2.13;;;;;;;-148.88;100.00;-17125.47;5015146;28;20022;-72
2023/08/03 00:02:46;;;;;;;8.40;2.13;;;;;;;-148.88;100.00;-17125.47;5016628;28;20030;-73
2023/08/03 00:05:13;;;;;;;8.60;2.30;;;;;;;-148.88;100.00;-17125.47;5016341;28;20057;-73
2023/08/03 00:07:38;;;;;;;7.65;2.10;;;;;;;-148.88;100.00;-17125.47;5014955;28;20096;-72
2023/08/03 00:10:04;;;;;;;8.25;2.28;;;;;;;-148.88;100.00;-17125.47;5014966;28;20431;-72
2023/08/03 00:12:29;;;;;;;8.30;2.15;;;;;;;-148.88;100.00;-17125.47;5014923;28;20022;-72
2023/08/03 00:14:56;;;;;;;7.10;2.20;;;;;;;-148.88;100.00;-17125.47;5016420;28;20049;-72
2023/08/03 00:17:22;;;;;;;10.90;2.10;;;;;;;-148.88;100.00;-17125.47;5016338;28;20025;-72
2023/08/03 00:19:47;;;;;;;8.60;2.30;;;;;;;-148.88;100.00;-17125.47;5016068;28;20026;-72
2023/08/03 00:22:12;;;;;;;13.85;1.85;;;;;;;-148.88;100.00;-17125.47;5016269;28;20033;-72
2023/08/03 00:24:37;;;;;;;5.75;1.70;;;;;;;-148.88;100.00;-17125.47;5016031;28;20026;-72
2023/08/03 00:27:03;;;;;;;5.15;1.60;;;;;;;-148.88;100.00;-17125.47;5014467;28;20112;-72
2023/08/03 00:29:28;;;;;;;6.53;1.33;;;;;;;-148.88;100.00;-17125.47;5015930;28;20029;-72
2023/08/03 00:31:54;;;;;;;7.82;2.53;;;;;;;-148.88;100.00;-17125.47;5015856;28;20051;-72
2023/08/03 00:34:19;;;;;;;8.30;1.80;;;;;;;-148.88;100.00;-17125.47;5014573;28;20068;-72
2023/08/03 00:36:44;;;;;;;8.40;1.85;;;;;;;-148.88;100.00;-17125.47;5014478;28;20018;-72
2023/08/03 00:39:10;;;;;;;5.93;1.48;;;;;;;-148.88;100.00;-17125.47;5015713;28;20025;-72
2023/08/03 00:41:35;;;;;;;5.32;1.48;;;;;;;-148.88;100.00;-17125.47;5015692;28;20021;-72
2023/08/03 00:44:01;;;;;;;4.63;1.38;;;;;;;-148.88;100.00;-17125.47;5015575;28;20048;-72
2023/08/03 00:46:26;;;;;;;5.15;1.33;;;;;;;-148.88;100.00;-17125.47;5015556;28;20507;-72
2023/08/03 00:48:51;;;;;;;6.35;1.30;;;;;;;-148.88;100.00;-17125.47;5015555;28;20037;-72
2023/08/03 00:51:17;;;;;;;4.45;1.67;;;;;;;-148.88;100.00;-17125.47;5015460;28;20033;-72
2023/08/03 00:53:45;;;;;;;6.82;1.58;;;;;;;-148.88;100.00;-17125.47;5015439;28;20022;-72
2023/08/03 00:56:13;;;;;;;4.78;1.35;;;;;;;-148.88;100.00;-17125.47;5015694;28;20029;-73
2023/08/03 00:58:40;;;;;;;5.05;1.60;;;;;;;-148.88;100.00;-17125.47;5015076;28;20057;-73
2023/08/03 01:01:06;;;;;;;5.65;1.52;;;;;;;-148.88;100.00;-17125.47;5015294;28;20022;-72
2023/08/03 01:03:31;;;;;;;4.18;1.38;;;;;;;-148.88;100.00;-17125.47;5013935;28;20038;-72
2023/08/03 01:05:57;;;;;;;5.25;1.63;;;;;;;-148.88;100.00;-17125.47;5015173;28;20025;-72
2023/08/03 01:08:23;;;;;;;5.55;1.55;;;;;;;-148.88;100.00;-17125.47;5015109;28;20101;-72
2023/08/03 01:10:49;;;;;;;5.05;1.20;;;;;;;-148.88;100.00;-17125.47;5015073;28;20026;-72
2023/08/03 01:13:14;;;;;;;6.28;1.17;;;;;;;-148.88;100.00;-17125.47;5015397;28;20018;-72
2023/08/03 01:15:40;;;;;;;8.93;1.25;;;;;;;-148.88;100.00;-17125.47;5015062;28;20033;-72
2023/08/03 01:18:05;;;;;;;5.85;1.20;;;;;;;-148.88;100.00;-17125.47;5014897;28;20044;-72
2023/08/03 01:20:34;;;;;;;4.25;1.30;;;;;;;-148.88;100.00;-17125.47;5015041;28;20029;-74
2023/08/03 01:23:01;;;;;;;8.07;1.67;;;;;;;-148.88;100.00;-17125.47;5014825;28;20040;-72
2023/08/03 01:25:26;;;;;;;5.75;1.40;;;;;;;-148.88;100.00;-17125.47;5014921;28;20411;-72
2023/08/03 01:27:52;;;;;;;4.93;1.40;;;;;;;-148.88;100.00;-17125.47;5014634;28;20038;-72
2023/08/03 01:30:17;;;;;;;5.47;1.52;;;;;;;-148.88;100.00;-17125.47;5014790;28;20089;-72
2023/08/03 01:32:43;;;;;;;6.90;1.48;;;;;;;-148.88;100.00;-17125.47;5014753;28;20025;-73
2023/08/03 01:35:08;;;;;;;5.53;1.52;;;;;;;-148.88;100.00;-17125.47;5014681;28;20058;-72
2023/08/03 01:37:35;;;;;;;5.72;1.70;;;;;;;-148.88;100.00;-17125.47;5014571;28;20100;-72
2023/08/03 01:40:02;;;;;;;6.15;1.83;;;;;;;-148.88;100.00;-17125.47;5014583;28;20025;-72
2023/08/03 01:42:27;;;;;;;4.55;2.13;;;;;;;-148.88;100.00;-17125.47;5014469;28;20029;-73
2023/08/03 01:44:52;;;;;;;4.78;1.58;;;;;;;-148.88;100.00;-17125.47;5014525;28;20026;-72
2023/08/03 01:47:18;;;;;;;5.13;1.60;;;;;;;-148.88;100.00;-17125.47;5013126;28;20380;-73
2023/08/03 01:49:43;;;;;;;6.53;1.88;;;;;;;-148.88;100.00;-17125.47;5014405;28;20400;-73
2023/08/03 01:52:08;;;;;;;4.80;1.58;;;;;;;-148.88;100.00;-17125.47;5014317;28;20380;-72
2023/08/03 01:54:34;;;;;;;6.50;1.73;;;;;;;-148.88;100.00;-17125.47;5014290;28;20029;-72
2023/08/03 01:56:59;;;;;;;5.60;1.67;;;;;;;-148.88;100.00;-17125.47;5014150;28;20075;-72
2023/08/03 01:59:24;;;;;;;2.88;1.60;;;;;;;-148.88;100.00;-17125.47;5012945;28;20029;-72
2023/08/03 02:01:50;;;;;;;4.57;1.92;;;;;;;-148.88;100.00;-17125.47;5014240;28;20068;-72
2023/08/03 02:04:15;;;;;;;5.38;1.65;;;;;;;-148.88;100.00;-17125.47;5014072;28;20113;-72
2023/08/03 02:06:45;;;;;;;4.07;1.83;;;;;;;-148.88;100.00;-17125.47;5012739;28;20401;-72
2023/08/03 02:09:10;;;;;;;4.20;1.70;;;;;;;-148.88;100.00;-17125.47;5014288;28;20025;-72
2023/08/03 02:11:36;;;;;;;3.30;1.50;;;;;;;-148.88;100.00;-17125.47;5013713;28;20071;-72
2023/08/03 02:14:01;;;;;;;3.75;1.67;;;;;;;-148.88;100.00;-17125.47;5014179;28;20021;-72
2023/08/03 02:16:27;;;;;;;4.03;1.60;;;;;;;-148.88;100.00;-17125.47;5013840;28;20030;-72
2023/08/03 02:18:52;;;;;;;3.95;1.48;;;;;;;-148.88;100.00;-17125.47;5013929;28;20030;-73
2023/08/03 02:21:17;;;;;;;3.83;1.65;;;;;;;-148.88;100.00;-17125.47;5014102;28;20434;-73
2023/08/03 02:23:43;;;;;;;2.95;1.75;;;;;;;-148.88;100.00;-17125.47;5014242;28;20022;-72
2023/08/03 02:26:08;;;;;;;2.80;1.42;;;;;;;-148.88;100.00;-17125.47;5013668;28;20109;-73
2023/08/03 02:28:34;;;;;;;2.47;1.50;;;;;;;-148.88;100.00;-17125.47;5013685;28;20022;-74
2023/08/03 02:30:59;;;;;;;5.05;1.73;;;;;;;-148.88;100.00;-17125.47;5012450;28;20029;-73
2023/08/03 02:33:25;;;;;;;2.30;1.58;;;;;;;-148.88;100.00;-17125.47;5013641;28;20017;-73
2023/08/03 02:35:50;;;;;;;3.90;1.80;;;;;;;-148.88;100.00;-17125.47;5013548;28;20030;-73
2023/08/03 02:38:16;;;;;;;4.82;1.92;;;;;;;-148.88;100.00;-17125.47;5013478;28;20028;-73
2023/08/03 02:40:41;;;;;;;3.28;1.85;;;;;;;-148.88;100.00;-17125.47;5013555;28;20491;-73
2023/08/03 02:43:06;;;;;;;3.25;1.52;;;;;;;-148.88;100.00;-17125.47;5013603;28;20477;-73
2023/08/03 02:45:32;;;;;;;4.75;1.92;;;;;;;-148.88;100.00;-17125.47;5013503;28;20026;-73
2023/08/03 02:47:57;;;;;;;3.53;1.80;;;;;;;-148.88;100.00;-17125.47;5013655;28;20104;-73
2023/08/03 02:50:22;;;;;;;2.70;1.77;;;;;;;-148.88;100.00;-17125.47;5013966;28;20400;-73
2023/08/03 02:52:49;;;;;;;3.72;2.28;;;;;;;-148.88;100.00;-17125.47;5013406;28;20045;-72
2023/08/03 02:55:14;;;;;;;3.75;2.10;;;;;;;-148.88;100.00;-17125.47;5013387;28;20037;-72
2023/08/03 02:57:39;;;;;;;6.13;2.50;;;;;;;-148.88;100.00;-17125.47;5011961;28;20026;-72
2023/08/03 03:00:06;;;;;;;7.05;3.20;;;;;;;-148.88;100.00;-17125.47;5013559;28;20029;-72
2023/08/03 03:02:31;;;;;;;4.53;3.50;;;;;;;-148.88;100.00;-17125.47;5013263;28;20037;-73
2023/08/03 03:04:57;;;;;;;4.72;3.83;;;;;;;-148.88;100.00;-17125.47;5012023;28;20116;-72
2023/08/03 03:07:22;;;;;;;5.95;4.00;;;;;;;-148.88;100.00;-17125.47;5013193;28;20060;-73
2023/08/03 03:09:47;;;;;;;6.55;3.80;;;;;;;-148.88;100.00;-17125.47;5013174;28;20018;-72
2023/08/03 03:12:13;;;;;;;6.72;4.10;;;;;;;-148.88;100.00;-17125.47;5013221;28;20018;-72
2023/08/03 03:14:38;;;;;;;8.80;4.57;;;;;;;-148.88;100.00;-17125.47;5013250;28;20026;-73
2023/08/03 03:17:09;;;;;;;7.90;4.28;;;;;;;-148.88;100.00;-17125.47;5021169;23;20500;-89
2023/08/03 03:19:38;;;;;;;6.10;4.68;;;;;;;-148.88;100.00;-17125.47;4997282;28;20030;-92
2023/08/03 03:22:07;;;;;;;6.30;4.50;;;;;;;-148.88;100.00;-17125.47;5015401;28;20030;-89
2023/08/03 03:24:33;;;;;;;5.90;4.53;;;;;;;-148.88;100.00;-17125.47;5019275;28;20389;-88
2023/08/03 03:26:58;;;;;;;5.88;4.28;;;;;;;-148.88;100.00;-17125.47;5018560;28;20535;-89
2023/08/03 03:29:24;;;;;;;6.93;5.03;;;;;;;-148.88;100.00;-17125.47;5016817;28;20033;-88
2023/08/03 03:32:06;;;;;;;7.88;5.63;;;;;;;-148.88;100.00;-17125.47;5033504;28;20032;-90
2023/08/03 03:34:52;;;;;;;7.35;4.93;;;;;;;-148.88;100.00;-17125.47;5017046;28;20045;-89
2023/08/03 03:37:44;;;;;;;7.05;5.55;;;;;;;-148.88;100.00;-17125.47;5016669;28;20021;-91
2023/08/03 03:40:38;;;;;;;6.85;5.38;;;;;;;-148.88;100.00;-17125.47;5018815;28;20030;-92
2023/08/03 03:43:03;;;;;;;5.45;4.80;;;;;;;-148.88;100.00;-17125.47;5017743;28;20037;-90
2023/08/03 03:45:52;;;;;;;6.15;5.20;;;;;;;-148.88;100.00;-17125.47;5017326;28;20034;-89
2023/08/03 03:48:17;;;;;;;6.28;4.43;;;;;;;-148.88;100.00;-17125.47;5009813;28;20037;-86
2023/08/03 03:50:52;;;;;;;5.68;4.25;;;;;;;-148.88;100.00;-17125.47;5017555;28;20026;-88
2023/08/03 03:53:17;;;;;;;5.28;3.92;;;;;;;-148.88;100.00;-17125.47;5017066;28;20030;-91
2023/08/03 03:55:53;;;;;;;4.32;3.53;;;;;;;-148.88;100.00;-17125.47;5016564;28;20446;-89
2023/08/03 03:58:35;;;;;;;5.97;3.97;;;;;;;-148.88;100.00;-17125.47;5016697;28;20022;-88
2023/08/03 04:01:00;;;;;;;4.72;4.20;;;;;;;-148.88;100.00;-17125.47;5017984;28;20034;-87
2023/08/03 04:03:26;;;;;;;4.85;4.38;;;;;;;-148.88;100.00;-17125.47;5016078;28;20033;-89
2023/08/03 04:05:52;;;;;;;5.80;4.95;;;;;;;-148.88;100.00;-17125.47;5015598;28;20045;-89
2023/08/03 04:08:18;;;;;;;7.55;5.40;;;;;;;-148.88;100.00;-17125.47;5015533;28;20057;-88
2023/08/03 04:10:43;;;;;;;7.22;4.70;;;;;;;-148.88;100.00;-17125.47;5015309;28;20038;-87
2023/08/03 04:13:12;;;;;;;7.40;5.25;;;;;;;-148.88;100.00;-17125.47;5015443;28;20580;-87
2023/08/03 04:15:49;;;;;;;6.97;5.60;;;;;;;-148.88;100.00;-17125.47;5016395;28;20030;-88
2023/08/03 04:18:29;;;;;;;7.13;6.13;;;;;;;-148.88;100.00;-17125.47;5015691;28;20455;-88
2023/08/03 04:20:55;;;;;;;8.48;6.00;;;;;;;-148.88;100.00;-17125.47;5015510;28;20388;-88
2023/08/03 04:23:43;;;;;;;7.65;5.60;;;;;;;-148.88;100.00;-17125.47;5022155;28;20025;-89
2023/08/03 04:26:09;;;;;;;11.10;6.20;;;;;;;-148.88;100.00;-17125.47;5023049;28;20459;-88
2023/08/03 04:28:42;;;;;;;7.78;6.03;;;;;;;-148.88;100.00;-17125.47;5017548;28;20030;-89
2023/08/03 04:31:16;;;;;;;7.53;5.80;;;;;;;-148.88;100.00;-17125.47;5016200;28;20029;-90
2023/08/03 04:36:57;;;;;;;6.95;5.50;;;;;;;-148.88;100.00;-17125.47;5016675;28;20392;-86
2023/08/03 04:39:25;;;;;;;6.80;5.53;;;;;;;-148.88;100.00;-17125.47;5016585;28;20026;-89
2023/08/03 04:41:53;;;;;;;9.98;6.18;;;;;;;-148.88;100.00;-17125.47;5016796;28;20057;-88
2023/08/03 04:44:32;;;;;;;;;;;;;;;;;;;;;
2023/08/03 04:47:05;;;;;;;9.70;6.40;;;;;;;-148.88;100.00;-17125.47;5015999;28;20026;-88
2023/08/03 04:49:33;;;;;;;9.65;6.47;;;;;;;-148.88;100.00;-17125.47;5010106;28;20038;-87
2023/08/03 04:52:11;;;;;;;14.23;7.35;;;;;;;-148.88;100.00;-17125.47;5014823;28;20033;-89
2023/08/03 04:54:36;;;;;;;10.93;7.30;;;;;;;-148.88;100.00;-17125.47;5014927;28;20044;-88
2023/08/03 04:57:34;;;;;;;10.25;6.50;;;;;;;-148.88;100.00;-17125.47;5031240;28;20388;-89
2023/08/03 05:00:19;;;;;;;8.27;6.72;;;;;;;-148.88;100.00;-17125.47;5002939;28;20034;-92
2023/08/03 05:02:51;;;;;;;9.57;6.22;;;;;;;-148.88;100.00;-17125.47;5014158;28;20029;-87
2023/08/03 05:05:19;;;;;;;9.63;6.30;;;;;;;-148.88;100.00;-17125.47;5014679;28;20485;-86
2023/08/03 05:07:45;;;;;;;11.10;5.72;;;;;;;-148.88;100.00;-17125.47;5014548;28;20032;-87
2023/08/03 05:10:43;;;;;;;7.80;5.90;;;;;;;-148.88;100.00;-17125.47;5014072;28;20034;-90
2023/08/03 05:13:19;;;;;;;7.45;5.55;;;;;;;-148.88;100.00;-17125.47;5014379;28;20026;-91
2023/08/03 05:15:47;;;;;;;10.48;5.80;;;;;;;-148.88;100.00;-17125.47;5014746;28;20026;-89
2023/08/03 05:18:12;;;;;;;8.10;5.80;;;;;;;-148.88;100.00;-17125.47;5015004;28;20029;-89
2023/08/03 05:20:43;;;;;;;8.68;5.82;;;;;;;-148.88;100.00;-17125.47;5014376;28;20046;-88
2023/08/03 05:23:14;;;;;;;8.70;5.25;;;;;;;-148.88;100.00;-17125.47;5015244;28;20028;-88
2023/08/03 05:25:40;;;;;;;15.07;4.95;;;;;;;-148.88;100.00;-17125.47;5022847;23;20030;-74
2023/08/03 05:28:06;;;;;;;9.57;4.78;;;;;;;-148.88;100.00;-17125.47;5027795;28;20131;-75
2023/08/03 05:30:31;;;;;;;11.38;4.57;;;;;;;-148.88;100.00;-17125.47;5034901;28;20021;-75
2023/08/03 05:32:57;;;;;;;8.15;4.38;;;;;;;-148.88;100.00;-17125.47;5034797;28;20049;-75
2023/08/03 05:35:22;;;;;;;7.10;3.95;;;;;;;-148.88;100.00;-17125.47;5034695;28;20040;-75
2023/08/03 05:37:52;;;;;;;7.38;4.22;;;;;;;-148.88;100.00;-17125.47;5034634;28;20025;-75
2023/08/03 05:40:17;;;;;;;7.90;3.90;;;;;;;-148.88;100.00;-17125.47;5033092;28;20021;-75
2023/08/03 05:42:43;;;;;;;10.02;3.97;;;;;;;-148.88;100.00;-17125.47;5032988;28;20075;-75
2023/08/03 05:45:32;;;;;;;9.95;4.30;;;;;;;-148.88;100.00;-17125.47;5033340;28;20033;-75
2023/08/03 05:47:58;;;;;;;7.50;3.60;;;;;;;-148.88;100.00;-17125.47;5034158;28;20394;-75
2023/08/03 05:50:24;;;;;;;6.68;3.38;;;;;;;-148.88;100.00;-17125.47;5032857;28;20021;-75
2023/08/03 05:52:50;;;;;;;8.30;3.60;;;;;;;-148.88;100.00;-17125.47;5034131;28;20079;-75
2023/08/03 05:55:16;;;;;;;7.93;3.85;;;;;;;-148.88;100.00;-17125.47;5033971;28;20099;-75
2023/08/03 05:57:41;;;;;;;6.40;2.83;;;;;;;-148.88;100.00;-17125.47;5033969;28;20484;-75
2023/08/03 06:00:21;;;;;;;6.72;3.10;;;;;;;-148.88;100.00;-17125.47;5032722;28;20052;-75
2023/08/03 06:02:47;;;;;;;5.60;3.08;;;;;;;-148.88;100.00;-17125.47;5049237;28;20025;-75
2023/08/03 06:05:39;;;;;;;5.97;3.17;;;;;;;-148.88;100.00;-17125.47;5034027;28;20029;-75
2023/08/03 06:08:20;;;;;;;5.82;2.90;;;;;;;-148.88;100.00;-17125.47;5032517;28;20147;-75
2023/08/03 06:10:52;;;;;;;6.88;2.67;;;;;;;-148.88;100.00;-17125.47;5033782;28;20097;-75
2023/08/03 06:13:31;;;;;;;6.03;2.75;;;;;;;-148.88;100.00;-17125.47;5033734;28;20029;-75
2023/08/03 06:15:57;;;;;;;3.97;2.50;;;;;;;-148.88;100.00;-17125.47;5033802;28;20025;-75
2023/08/03 06:18:22;;;;;;;5.32;3.00;;;;;;;-148.88;100.00;-17125.47;5032288;28;20067;-75
2023/08/03 06:20:50;;;;;;;8.02;3.25;;;;;;;-148.88;100.00;-17125.47;5033660;28;20038;-75
2023/08/03 06:23:19;;;;;;;5.70;2.90;;;;;;;-148.88;100.00;-17125.47;5033689;28;20496;-75
2023/08/03 06:25:49;;;;;;;7.28;2.78;;;;;;;-148.88;100.00;-17125.47;5033375;28;20030;-75
2023/08/03 06:28:16;;;;;;;8.27;2.80;;;;;;;-148.88;100.00;-17125.47;5032160;28;20499;-75
2023/08/03 06:30:43;;;;;;;6.63;3.20;;;;;;;-148.88;100.00;-17125.47;5033423;28;20017;-75
2023/08/03 06:33:11;;;;;;;7.13;3.03;;;;;;;-148.88;100.00;-17125.47;5033497;28;20033;-75
2023/08/03 06:35:39;;;;;;;6.47;2.90;;;;;;;-148.88;100.00;-17125.47;5033342;28;20112;-76
2023/08/03 06:38:07;;;;;;;5.70;3.03;;;;;;;-148.88;100.00;-17125.47;5032042;28;20538;-75
2023/08/03 06:40:34;;;;;;;7.93;3.17;;;;;;;-148.88;100.00;-17125.47;5033433;28;20021;-76
2023/08/03 06:43:02;;;;;;;7.47;3.15;;;;;;;-148.88;100.00;-17125.47;5033286;28;20021;-75
2023/08/03 06:45:31;;;;;;;6.25;3.20;;;;;;;-148.88;100.00;-17125.47;5033496;28;20391;-75
2023/08/03 06:47:58;;;;;;;6.00;3.13;;;;;;;-148.88;100.00;-17125.47;5031757;28;20021;-75
2023/08/03 06:50:24;;;;;;;4.57;3.00;;;;;;;-148.88;100.00;-17125.47;5033103;28;20029;-75
2023/08/03 06:52:50;;;;;;;3.72;2.65;;;;;;;-148.88;100.00;-17125.47;5033357;28;20018;-75
2023/08/03 06:55:16;;;;;;;5.38;2.85;;;;;;;-148.88;100.00;-17125.47;5033079;28;20472;-74
2023/08/03 06:57:41;;;;;;;5.63;2.97;;;;;;;-148.88;100.00;-17125.47;5032776;28;20033;-74
2023/08/03 07:00:08;;;;;;;7.28;3.15;;;;;;;-148.88;100.00;-17125.47;5031762;28;20021;-75
2023/08/03 07:02:34;;;;;;;7.03;3.78;;;;;;;-148.88;100.00;-17125.47;5032901;28;20040;-74
2023/08/03 07:04:59;;;;;;;5.10;3.17;;;;;;;-148.88;100.00;-17125.47;5031681;28;20032;-74
2023/08/03 07:07:25;;;;;;;7.13;4.05;;;;;;;-148.88;100.00;-17125.47;5032887;28;20079;-74
2023/08/03 07:09:50;;;;;;;6.20;3.53;;;;;;;-148.88;100.00;-17125.47;5031656;28;20116;-74
2023/08/03 07:12:16;;;;;;;4.05;3.10;;;;;;;-148.88;100.00;-17125.47;5032974;28;20458;-74
2023/08/03 07:14:42;;;;;;;5.53;3.33;;;;;;;-148.88;100.00;-17125.47;5032927;28;20028;-75
2023/08/03 07:17:07;;;;;;;4.35;2.83;;;;;;;-148.88;100.00;-17125.47;5032794;28;20026;-74
2023/08/03 07:19:33;;;;;;;6.18;3.17;;;;;;;-148.88;100.00;-17125.47;5031621;28;20072;-75
2023/08/03 07:21:58;;;;;;;5.35;2.95;;;;;;;-148.88;100.00;-17125.47;5031553;28;20017;-75
2023/08/03 07:24:24;;;;;;;6.20;2.50;;;;;;;-148.88;100.00;-17125.47;5031466;28;20502;-74
2023/08/03 07:26:50;;;;;;;4.43;2.55;;;;;;;-148.88;100.00;-17125.47;5032597;28;20029;-74
2023/08/03 07:29:16;;;;;;;4.10;2.40;;;;;;;-148.88;100.00;-17125.47;5032702;28;20025;-74
2023/08/03 07:31:41;;;;;;;3.40;2.00;;;;;;;-148.88;100.00;-17125.47;5032681;28;20022;-74
2023/08/03 07:34:07;;;;;;;3.33;2.00;;;;;;;-148.88;100.00;-17125.47;5032659;28;20018;-75
2023/08/03 07:36:32;;;;;;;4.50;2.00;;;;;;;-148.88;100.00;-17125.47;5032619;28;20026;-74
2023/08/03 07:38:57;;;;;;;3.50;2.00;;;;;;;-148.88;100.00;-17125.47;5031349;28;20025;-74
2023/08/03 07:41:23;;;;;;;5.20;2.47;;;;;;;-148.88;100.00;-17125.47;5032621;28;20029;-74
2023/08/03 07:43:50;;;;;;;3.45;2.28;;;;;;;-148.88;100.00;-17125.47;5032557;28;20021;-74
2023/08/03 07:46:15;;;;;;;4.22;2.00;;;;;;;-148.88;100.00;-17125.47;5031331;28;20030;-74
2023/08/03 07:48:41;;;;;;;3.08;1.73;;;;;;;-148.88;100.00;-17125.47;5032502;28;20028;-74
2023/08/03 07:51:17;;;;;;;3.65;1.80;;;;;;;-148.88;100.00;-17125.47;5031269;28;20026;-75
2023/08/03 07:53:43;;;;;;;2.65;1.40;;;;;;;-148.88;100.00;-17125.47;5031231;28;20017;-75
2023/08/03 07:56:19;;;;;;;2.40;1.30;;;;;;;-148.88;100.00;-17125.47;5031264;28;20056;-75
2023/08/03 07:58:45;;;;;;;2.65;1.60;;;;;;;-148.88;100.00;-17125.47;5032390;28;20368;-75
2023/08/03 08:01:11;;;;;;;5.68;1.70;;;;;;;-148.88;100.00;-17125.47;5032426;28;20022;-74
2023/08/03 08:03:40;;;;;;;2.53;1.77;;;;;;;-148.88;100.00;-17125.47;5032321;28;20032;-75
2023/08/03 08:06:07;;;;;;;3.33;1.73;;;;;;;-148.88;100.00;-17125.47;5032365;28;20036;-75
2023/08/03 08:08:33;;;;;;;3.33;1.77;;;;;;;-148.88;100.00;-17125.47;5033242;28;20388;-75
2023/08/03 08:10:59;;;;;;;3.88;1.85;;;;;;;-148.88;100.00;-17125.47;5036340;28;20025;-75
2023/08/03 08:13:24;;;;;;;2.72;1.50;;;;;;;-148.88;100.00;-17125.47;5036045;28;20075;-75
2023/08/03 08:15:49;;;;;;;2.30;1.50;;;;;;;-148.88;100.00;-17125.47;5035933;28;20056;-76
2023/08/03 08:18:15;;;;;;;3.42;2.22;;;;;;;-148.88;100.00;-17125.47;5035901;28;20025;-75
2023/08/03 08:20:40;;;;;;;4.63;2.10;;;;;;;-148.88;100.00;-17125.47;5035883;28;20476;-75
2023/08/03 08:23:05;;;;;;;2.70;1.88;;;;;;;-148.88;100.00;-17125.47;5035769;28;20387;-75
2023/08/03 08:25:33;;;;;;;3.40;1.70;;;;;;;-148.88;100.00;-17125.47;5035849;28;20043;-75
2023/08/03 08:27:59;;;;;;;2.78;1.92;;;;;;;-148.88;100.00;-17125.47;5035748;28;20104;-74
2023/08/03 08:30:24;;;;;;;2.83;1.95;;;;;;;-148.88;100.00;-17125.47;5035663;28;20053;-74
2023/08/03 08:32:49;;;;;;;3.35;1.98;;;;;;;-148.88;100.00;-17125.47;5034431;28;20018;-75
2023/08/03 08:35:15;;;;;;;2.08;1.67;;;;;;;-148.88;100.00;-17125.47;5034411;28;20072;-75
2023/08/03 08:37:40;;;;;;;2.28;1.65;;;;;;;-148.88;100.00;-17125.47;5035647;28;20021;-75
2023/08/03 08:40:11;;;;;;;5.70;2.20;;;;;;;-148.88;100.00;-17125.47;5034223;28;20511;-74
2023/08/03 08:42:36;;;;;;;2.05;1.85;;;;;;;-148.88;100.00;-17125.47;5035675;28;20028;-75
2023/08/03 08:45:03;;;;;;;2.88;2.15;;;;;;;-148.88;100.00;-17125.47;5035437;28;20029;-75
2023/08/03 08:47:28;;;;;;;3.28;2.55;;;;;;;-148.88;100.00;-17125.47;5034053;28;20026;-74
2023/08/03 08:49:54;;;;;;;2.85;2.55;;;;;;;-148.88;100.00;-17125.47;5035629;28;20029;-74
2023/08/03 08:52:20;;;;;;;5.15;3.15;;;;;;;-148.88;100.00;-17125.47;5035303;28;20067;-75
2023/08/03 08:54:45;;;;;;;4.30;3.47;;;;;;;-148.88;100.00;-17125.47;5034012;28;20021;-75
2023/08/03 08:57:11;;;;;;;4.35;3.08;;;;;;;-148.88;100.00;-17125.47;5035306;28;20049;-74
2023/08/03 08:59:36;;;;;;;6.40;3.70;;;;;;;-148.88;100.00;-17125.47;5035110;28;20051;-75
2023/08/03 09:02:02;;;;;;;4.35;3.95;;;;;;;-148.88;100.00;-17125.47;5035090;28;20483;-74
2023/08/03 09:04:29;;;;;;;5.10;4.38;;;;;;;-148.88;100.00;-17125.47;5034988;28;20014;-74
2023/08/03 09:06:55;;;;;;;4.90;4.40;;;;;;;-148.88;100.00;-17125.47;5033693;28;20498;-74
2023/08/03 09:09:35;;;;;;;5.00;4.55;;;;;;;-148.88;100.00;-17125.47;5035284;28;20053;-75
2023/08/03 09:12:00;;;;;;;5.57;5.05;;;;;;;-148.88;100.00;-17125.47;5034944;28;20158;-75
2023/08/03 09:14:25;;;;;;;5.60;5.00;;;;;;;-148.88;100.00;-17125.47;5034990;28;20097;-75
2023/08/03 09:16:51;;;;;;;5.82;5.22;;;;;;;-148.88;100.00;-17125.47;5033463;28;20060;-74
2023/08/03 09:19:34;;;;;;;5.68;5.05;;;;;;;-148.88;100.00;-17125.47;5033378;28;20060;-75
2023/08/03 09:22:00;;;;;;;5.03;4.47;;;;;;;-148.88;100.00;-17125.47;5034156;28;20069;-75
2023/08/03 09:24:25;;;;;;;6.65;4.40;;;;;;;-148.88;100.00;-17125.47;5034666;28;20109;-74
2023/08/03 09:26:50;;;;;;;5.47;4.40;;;;;;;-148.88;100.00;-17125.47;5034437;28;20057;-74
2023/08/03 09:29:16;;;;;;;4.13;3.72;;;;;;;-148.88;100.00;-17125.47;5033277;28;20120;-74
2023/08/03 09:31:41;;;;;;;4.18;3.47;;;;;;;-148.88;100.00;-17125.47;5034591;28;20026;-74
2023/08/03 09:34:07;;;;;;;4.18;3.78;;;;;;;-148.88;100.00;-17125.47;5034532;28;20022;-74
2023/08/03 09:36:32;;;;;;;4.25;3.78;;;;;;;-148.88;100.00;-17125.47;5034394;28;20029;-74
2023/08/03 09:39:14;;;;;;;4.10;3.67;;;;;;;-148.88;100.00;-17125.47;5034692;28;20022;-74
2023/08/03 09:41:40;;;;;;;4.70;4.28;;;;;;;-148.88;100.00;-17125.47;5033100;28;20026;-74
2023/08/03 09:44:07;;;;;;;5.07;4.63;;;;;;;-148.88;100.00;-17125.47;5034587;28;20017;-74
2023/08/03 09:46:33;;;;;;;5.22;4.70;;;;;;;-148.88;100.00;-17125.47;5034212;28;20026;-74
2023/08/03 09:48:58;;;;;;;6.25;5.68;;;;;;;-148.88;100.00;-17125.47;5034256;28;20026;-75
2023/08/03 09:51:28;;;;;;;6.00;5.50;;;;;;;-148.88;100.00;-17125.47;5034226;28;20032;-74
2023/08/03 09:54:00;;;;;;;6.45;5.93;;;;;;;-148.88;100.00;-17125.47;5033771;28;20369;-74
2023/08/03 09:56:31;;;;;;;7.68;6.50;;;;;;;-148.88;100.00;-17125.47;5034357;28;20394;-74
2023/08/03 09:59:03;;;;;;;7.90;7.20;;;;;;;-148.88;100.00;-17125.47;5034311;28;20025;-74
2023/08/03 10:01:31;;;;;;;7.65;6.90;;;;;;;-148.88;100.00;-17125.47;5034115;28;20048;-74
2023/08/03 10:04:02;;;;;;;7.45;6.85;;;;;;;-148.88;100.00;-17125.47;5032572;28;20029;-74
2023/08/03 10:06:33;;;;;;;7.75;7.15;;;;;;;-148.88;100.00;-17125.47;5032575;28;20033;-74
2023/08/03 10:09:12;;;;;;;7.00;6.40;;;;;;;-148.88;100.00;-17125.47;5032666;28;20022;-75
2023/08/03 10:11:46;;;;;;;7.63;6.82;;;;;;;-148.88;100.00;-17125.47;5033829;28;20151;-74
2023/08/03 10:14:14;;;;;;;6.50;5.97;;;;;;;-148.88;100.00;-17125.47;5033654;28;20022;-74
2023/08/03 10:16:41;;;;;;;6.00;5.40;;;;;;;-148.88;100.00;-17125.47;5032379;28;20480;-74
2023/08/03 10:19:08;;;;;;;6.07;5.50;;;;;;;-148.88;100.00;-17125.47;5032395;28;20072;-75
2023/08/03 10:21:34;;;;;;;7.70;5.70;;;;;;;-148.88;100.00;-17125.47;5033746;28;20029;-75
2023/08/03 10:24:14;;;;;;;7.00;6.43;;;;;;;-148.88;100.00;-17125.47;5033505;28;20024;-74
2023/08/03 10:26:40;;;;;;;7.72;6.82;;;;;;;-148.88;100.00;-17125.47;5033507;28;20399;-74
2023/08/03 10:29:06;;;;;;;9.30;7.80;;;;;;;-148.88;100.00;-17125.47;5032341;28;20094;-74
2023/08/03 10:31:31;;;;;;;9.40;8.13;;;;;;;-148.88;100.00;-17125.47;5033262;28;20365;-74
2023/08/03 10:33:56;;;;;;;10.05;8.95;;;;;;;-148.88;100.00;-17125.47;5033390;28;20100;-74
2023/08/03 10:36:28;;;;;;;10.00;9.05;;;;;;;-148.88;100.00;-17125.47;5033314;28;20100;-73
2023/08/03 10:38:53;;;;;;;9.30;8.40;;;;;;;-148.88;100.00;-17125.47;5032160;28;20483;-75
2023/08/03 10:41:27;;;;;;;9.85;8.95;;;;;;;-148.88;100.00;-17125.47;5032113;28;20040;-74
2023/08/03 10:44:12;;;;;;;9.43;8.13;;;;;;;-148.88;100.00;-17125.47;5033459;28;20021;-74
2023/08/03 10:46:47;;;;;;;10.32;8.82;;;;;;;-148.88;100.00;-17125.47;5033112;28;20036;-74
2023/08/03 10:49:22;;;;;;;8.50;7.65;;;;;;;-148.88;100.00;-17125.47;5033236;28;20055;-74
2023/08/03 10:52:15;;;;;;;10.45;7.95;;;;;;;-148.88;100.00;-17125.47;5033108;28;20025;-74
2023/08/03 10:54:40;;;;;;;10.73;8.50;;;;;;;-148.88;100.00;-17125.47;5033183;28;20045;-74
2023/08/03 10:57:11;;;;;;;12.57;8.32;;;;;;;-148.88;100.00;-17125.47;5033387;28;20030;-74
2023/08/03 10:59:41;;;;;;;9.73;8.63;;;;;;;-148.88;100.00;-17125.47;5033139;28;20025;-74
2023/08/03 11:02:11;;;;;;;10.55;8.25;;;;;;;-148.88;100.00;-17125.47;5033068;28;20088;-74
2023/08/03 11:04:37;;;;;;;8.93;8.07;;;;;;;-148.88;100.00;-17125.47;5032921;28;20018;-74
2023/08/03 11:07:03;;;;;;;10.02;9.02;;;;;;;-148.88;100.00;-17125.47;5033135;28;20039;-74
2023/08/03 11:09:29;;;;;;;9.52;8.63;;;;;;;-148.88;100.00;-17125.47;5032895;28;20096;-74